createdAt,value
2023-03-03T00:01:53.871Z,7.62
2023-03-03T00:04:20.545Z,7.74
2023-03-03T00:06:47.188Z,7.43
2023-03-03T00:09:13.830Z,6.77
2023-03-03T00:11:40.488Z,7.20
2023-03-03T00:14:22.192Z,7.38
2023-03-03T00:16:49.977Z,6.04
2023-03-03T00:19:19.564Z,7.00
2023-03-03T00:21:48.232Z,6.86
2023-03-03T00:24:18.231Z,6.06
2023-03-03T00:26:55.723Z,6.01
2023-03-03T00:29:28.475Z,6.92
2023-03-03T00:31:55.843Z,6.35
2023-03-03T00:34:27.496Z,6.59
2023-03-03T00:36:56.349Z,6.23
2023-03-03T00:39:38.903Z,7.18
2023-03-03T00:42:16.908Z,6.64
2023-03-03T00:45:00.393Z,7.17
2023-03-03T00:47:45.140Z,6.79
2023-03-03T00:50:11.751Z,7.20
2023-03-03T00:52:52.368Z,7.53
2023-03-03T00:55:18.989Z,7.08
2023-03-03T00:57:45.529Z,7.01
2023-03-03T01:00:13.205Z,6.70
2023-03-03T01:02:39.992Z,7.47
2023-03-03T01:05:06.928Z,7.31
2023-03-03T01:07:33.524Z,7.50
2023-03-03T01:10:00.156Z,7.49
2023-03-03T01:12:26.818Z,7.57
2023-03-03T01:14:55.458Z,7.06
2023-03-03T01:17:22.178Z,7.12
2023-03-03T01:19:48.811Z,7.14
2023-03-03T01:22:15.896Z,7.30
2023-03-03T01:24:42.511Z,7.65
2023-03-03T01:27:09.122Z,7.59
2023-03-03T01:29:35.760Z,6.80
2023-03-03T01:32:02.444Z,7.21
2023-03-03T01:34:29.147Z,7.49
2023-03-03T01:36:55.808Z,7.69
2023-03-03T01:39:22.510Z,7.73
2023-03-03T01:41:49.167Z,7.79
2023-03-03T01:44:16.318Z,7.77
2023-03-03T01:47:09.055Z,7.53
2023-03-03T01:49:51.034Z,7.43
2023-03-03T01:52:33.416Z,7.40
2023-03-03T01:55:04.804Z,6.68
2023-03-03T01:57:35.357Z,6.86
2023-03-03T02:00:03.841Z,6.86
2023-03-03T02:02:31.894Z,6.90
2023-03-03T02:04:58.850Z,7.31
2023-03-03T02:07:28.289Z,7.03
2023-03-03T02:09:54.824Z,6.65
2023-03-03T02:12:25.993Z,6.07
2023-03-03T02:14:52.618Z,6.21
2023-03-03T02:17:19.338Z,6.53
2023-03-03T02:20:05.542Z,6.67
2023-03-03T02:22:51.034Z,6.59
2023-03-03T02:25:28.880Z,7.15
2023-03-03T02:27:57.189Z,7.20
2023-03-03T02:30:25.774Z,5.99
2023-03-03T02:32:52.453Z,6.56
2023-03-03T02:35:34.758Z,6.80
2023-03-03T02:38:17.784Z,7.18
2023-03-03T02:40:57.217Z,7.54
2023-03-03T02:43:29.253Z,7.23
2023-03-03T02:45:56.476Z,6.99
2023-03-03T02:48:23.142Z,6.84
2023-03-03T02:50:50.391Z,5.66
2023-03-03T02:53:17.002Z,5.63
2023-03-03T02:55:43.786Z,6.05
2023-03-03T02:58:10.421Z,6.46
2023-03-03T03:00:37.073Z,7.04
2023-03-03T03:03:03.894Z,7.21
2023-03-03T03:05:30.453Z,7.46
2023-03-03T03:07:56.989Z,7.59
2023-03-03T03:10:23.598Z,7.53
2023-03-03T03:12:50.250Z,7.39
2023-03-03T03:15:17.666Z,7.11
2023-03-03T03:17:44.393Z,7.07
2023-03-03T03:20:11.771Z,5.91
2023-03-03T03:22:38.448Z,6.37
2023-03-03T03:25:05.395Z,6.04
2023-03-03T03:27:32.093Z,6.48
2023-03-03T03:29:58.716Z,6.92
2023-03-03T03:32:25.351Z,6.81
2023-03-03T03:34:51.951Z,7.21
2023-03-03T03:37:18.629Z,7.18
2023-03-03T03:39:45.270Z,7.15
2023-03-03T03:42:12.025Z,7.24
2023-03-03T03:44:38.703Z,7.26
2023-03-03T03:47:05.455Z,5.93
2023-03-03T03:49:32.101Z,6.50
2023-03-03T03:51:58.722Z,6.90
2023-03-03T03:54:25.393Z,6.99
2023-03-03T03:56:51.974Z,7.26
2023-03-03T03:59:18.559Z,7.17
2023-03-03T04:01:45.224Z,7.05
2023-03-03T04:04:12.013Z,7.30
2023-03-03T04:06:38.758Z,7.31
2023-03-03T04:09:05.421Z,6.88
2023-03-03T04:11:32.053Z,6.64
2023-03-03T04:13:58.682Z,5.81
2023-03-03T04:16:25.364Z,6.46
2023-03-03T04:18:52.099Z,6.62
2023-03-03T04:21:18.914Z,6.90
2023-03-03T04:23:45.573Z,7.19
2023-03-03T04:26:12.191Z,7.16
2023-03-03T04:28:38.757Z,7.02
2023-03-03T04:31:05.500Z,6.78
2023-03-03T04:33:32.253Z,6.53
2023-03-03T04:35:58.963Z,6.85
2023-03-03T04:38:26.325Z,7.12
2023-03-03T04:40:52.987Z,6.50
2023-03-03T04:43:19.653Z,6.28
2023-03-03T04:45:46.275Z,6.72
2023-03-03T04:48:13.045Z,6.85
2023-03-03T04:50:39.772Z,6.79
2023-03-03T04:53:06.417Z,6.69
2023-03-03T04:55:33.412Z,6.58
2023-03-03T04:58:00.051Z,6.80
2023-03-03T05:00:26.668Z,6.63
2023-03-03T05:02:53.686Z,6.86
2023-03-03T05:05:20.315Z,6.93
2023-03-03T05:07:46.886Z,6.91
2023-03-03T05:10:13.492Z,6.42
2023-03-03T05:12:40.084Z,6.58
2023-03-03T05:15:07.613Z,6.10
2023-03-03T05:17:34.465Z,6.71
2023-03-03T05:20:01.068Z,6.83
2023-03-03T05:22:30.936Z,6.90
2023-03-03T05:24:57.695Z,6.92
2023-03-03T05:27:24.451Z,6.92
2023-03-03T05:29:52.431Z,6.95
2023-03-03T05:32:19.186Z,7.31
2023-03-03T05:34:45.918Z,6.75
2023-03-03T05:37:12.817Z,6.61
2023-03-03T05:39:39.542Z,6.02
2023-03-03T05:42:06.323Z,6.43
2023-03-03T05:44:32.931Z,6.59
2023-03-03T05:46:59.692Z,6.90
2023-03-03T05:49:26.740Z,7.02
2023-03-03T05:51:53.427Z,6.99
2023-03-03T05:54:20.022Z,7.07
2023-03-03T05:56:46.666Z,6.11
2023-03-03T05:59:13.273Z,6.62
2023-03-03T06:01:39.886Z,7.01
2023-03-03T06:04:06.512Z,6.87
2023-03-03T06:06:33.217Z,6.59
2023-03-03T06:08:59.936Z,6.25
2023-03-03T06:11:26.519Z,5.30
2023-03-03T06:13:53.180Z,6.32
2023-03-03T06:16:20.730Z,6.76
2023-03-03T06:18:48.596Z,7.12
2023-03-03T06:21:15.190Z,7.32
2023-03-03T06:23:41.919Z,7.01
2023-03-03T06:26:08.588Z,7.41
2023-03-03T06:28:35.198Z,7.58
2023-03-03T06:31:02.254Z,7.12
2023-03-03T06:33:28.863Z,7.13
2023-03-03T06:35:55.679Z,7.09
2023-03-03T06:38:22.272Z,6.18
2023-03-03T06:40:48.969Z,7.19
2023-03-03T06:43:15.739Z,6.89
2023-03-03T06:45:43.365Z,7.09
2023-03-03T06:48:10.052Z,7.44
2023-03-03T06:50:36.828Z,7.46
2023-03-03T06:53:15.389Z,6.39
2023-03-03T06:55:44.810Z,6.53
2023-03-03T06:58:17.135Z,6.84
2023-03-03T07:00:46.331Z,6.36
2023-03-03T07:03:16.535Z,6.72
2023-03-03T07:05:43.424Z,7.23
2023-03-03T07:08:15.065Z,7.33
2023-03-03T07:10:42.128Z,6.76
2023-03-03T07:13:35.021Z,6.95
2023-03-03T07:16:11.461Z,7.19
2023-03-03T07:18:54.694Z,6.97
2023-03-03T07:21:35.010Z,7.29
2023-03-03T07:24:22.003Z,7.33
2023-03-03T07:26:48.851Z,6.98
2023-03-03T07:29:22.394Z,7.18
2023-03-03T07:31:50.359Z,5.88
2023-03-03T07:34:40.194Z,6.74
2023-03-03T07:37:36.081Z,7.22
2023-03-03T07:40:27.190Z,7.27
2023-03-03T07:42:53.808Z,7.30
2023-03-03T07:45:32.596Z,7.00
2023-03-03T07:48:19.960Z,6.99
2023-03-03T07:50:47.688Z,7.47
2023-03-03T07:53:26.407Z,7.35
2023-03-03T07:55:53.134Z,7.68
2023-03-03T07:58:24.859Z,7.84
2023-03-03T08:01:31.900Z,7.06
2023-03-03T08:03:58.777Z,7.52
2023-03-03T08:07:02.279Z,8.02
2023-03-03T08:09:32.018Z,7.88
2023-03-03T08:12:07.265Z,7.59
2023-03-03T08:14:38.997Z,7.93
2023-03-03T08:17:22.177Z,7.25
2023-03-03T08:19:51.183Z,6.20
2023-03-03T08:22:30.352Z,6.53
2023-03-03T08:24:57.249Z,7.20
2023-03-03T08:27:25.495Z,7.62
2023-03-03T08:29:52.154Z,7.42
2023-03-03T08:32:20.417Z,7.70
2023-03-03T08:34:47.345Z,7.82
2023-03-03T08:37:13.982Z,6.94
2023-03-03T08:39:40.728Z,6.75
2023-03-03T08:42:07.287Z,7.58
2023-03-03T08:44:34.505Z,7.97
2023-03-03T08:47:04.249Z,8.03
2023-03-03T08:49:32.180Z,7.72
2023-03-03T08:52:01.194Z,7.31
2023-03-03T08:54:35.032Z,7.84
2023-03-03T08:57:01.596Z,8.32
2023-03-03T08:59:28.448Z,8.21
2023-03-03T09:01:55.171Z,8.07
2023-03-03T09:04:22.018Z,8.03
2023-03-03T09:06:48.651Z,8.27
2023-03-03T09:09:17.002Z,7.82
2023-03-03T09:11:45.611Z,8.17
2023-03-03T09:14:15.200Z,8.01
2023-03-03T09:16:51.066Z,7.95
2023-03-03T09:19:30.901Z,7.73
2023-03-03T09:22:03.227Z,7.96
2023-03-03T09:24:31.971Z,8.43
2023-03-03T09:26:59.592Z,9.00
2023-03-03T09:29:29.215Z,8.68
2023-03-03T09:32:02.621Z,8.66
2023-03-03T09:34:40.014Z,8.93
2023-03-03T09:37:28.658Z,8.46
2023-03-03T09:39:59.998Z,8.37
2023-03-03T09:42:48.137Z,7.94
2023-03-03T09:45:42.609Z,8.24
2023-03-03T09:48:45.804Z,8.27
2023-03-03T09:51:30.099Z,8.31
2023-03-03T09:54:08.894Z,8.35
2023-03-03T09:57:06.509Z,8.21
2023-03-03T09:59:47.315Z,8.49
2023-03-03T10:02:42.885Z,8.28
2023-03-03T10:05:31.609Z,8.30
2023-03-03T10:08:28.869Z,8.35
2023-03-03T10:11:09.657Z,8.09
2023-03-03T10:13:52.740Z,8.20
2023-03-03T10:16:50.029Z,8.38
2023-03-03T10:19:53.269Z,8.08
2023-03-03T10:22:28.547Z,8.21
2023-03-03T10:24:55.206Z,7.91
2023-03-03T10:27:43.565Z,8.07
2023-03-03T10:30:41.194Z,8.56
2023-03-03T10:33:30.600Z,8.51
2023-03-03T10:36:12.317Z,8.37
2023-03-03T10:39:10.241Z,8.77
2023-03-03T10:42:07.119Z,8.64
2023-03-03T10:45:08.467Z,8.71
2023-03-03T10:47:56.519Z,8.11
2023-03-03T10:50:53.804Z,8.28
2023-03-03T10:53:39.214Z,8.75
2023-03-03T10:56:31.017Z,8.67
2023-03-03T10:59:09.263Z,8.59
2023-03-03T11:01:35.884Z,8.34
2023-03-03T11:04:14.628Z,8.53
2023-03-03T11:06:56.298Z,8.38
2023-03-03T11:10:07.598Z,8.80
2023-03-03T11:12:54.146Z,8.70
2023-03-03T11:15:38.921Z,8.62
2023-03-03T11:18:05.466Z,8.22
2023-03-03T11:20:44.380Z,8.18
2023-03-03T11:23:30.982Z,8.09
2023-03-03T11:26:41.695Z,8.17
2023-03-03T11:29:25.573Z,8.48
2023-03-03T11:31:57.697Z,8.44
2023-03-03T11:34:43.124Z,8.31
2023-03-03T11:37:57.233Z,8.55
2023-03-03T11:41:08.615Z,8.40
2023-03-03T11:43:48.749Z,8.13
2023-03-03T11:46:25.536Z,8.54
2023-03-03T11:49:17.218Z,9.09
2023-03-03T11:51:43.838Z,8.76
2023-03-03T11:54:47.218Z,8.46
2023-03-03T11:57:32.190Z,8.62
2023-03-03T12:00:05.090Z,8.31
2023-03-03T12:02:56.630Z,8.46
2023-03-03T12:05:41.982Z,8.46
2023-03-03T12:08:17.434Z,8.70
2023-03-03T12:11:02.385Z,8.90
2023-03-03T12:13:48.655Z,8.92
2023-03-03T12:16:52.866Z,8.89
2023-03-03T12:19:32.082Z,8.24
2023-03-03T12:22:04.457Z,8.35
2023-03-03T12:24:59.104Z,8.11
2023-03-03T12:27:25.664Z,8.50
2023-03-03T12:30:10.779Z,8.54
2023-03-03T12:33:06.389Z,7.81
2023-03-03T12:36:00.471Z,7.74
2023-03-03T12:38:39.002Z,7.85
2023-03-03T12:41:32.113Z,8.02
2023-03-03T12:44:26.949Z,8.24
2023-03-03T12:47:08.469Z,8.57
2023-03-03T12:50:06.561Z,8.81
2023-03-03T12:52:56.934Z,8.38
2023-03-03T12:55:41.926Z,8.21
2023-03-03T12:58:31.708Z,8.67
2023-03-03T13:01:37.020Z,8.03
2023-03-03T13:04:13.837Z,8.82
2023-03-03T13:06:53.043Z,8.27
2023-03-03T13:09:37.877Z,8.27
2023-03-03T13:12:13.836Z,8.36
2023-03-03T13:14:54.497Z,8.47
2023-03-03T13:17:52.904Z,8.85
2023-03-03T13:20:32.120Z,8.44
2023-03-03T13:23:10.569Z,8.07
2023-03-03T13:25:37.306Z,8.08
2023-03-03T13:28:32.871Z,7.95
2023-03-03T13:31:27.606Z,8.06
2023-03-03T13:34:01.490Z,8.39
2023-03-03T13:36:33.975Z,8.42
2023-03-03T13:39:06.991Z,8.49
2023-03-03T13:41:51.478Z,8.70
2023-03-03T13:44:42.752Z,8.84
2023-03-03T13:47:14.753Z,8.88
2023-03-03T13:49:53.264Z,9.25
2023-03-03T13:52:27.367Z,9.22
2023-03-03T13:55:14.054Z,9.17
2023-03-03T13:58:05.067Z,9.31
2023-03-03T14:00:39.573Z,9.36
2023-03-03T14:03:09.412Z,9.51
2023-03-03T14:05:37.710Z,9.18
2023-03-03T14:08:18.166Z,9.50
2023-03-03T14:10:56.388Z,8.87
2023-03-03T14:13:49.257Z,8.93
2023-03-03T14:16:30.051Z,9.21
2023-03-03T14:19:33.158Z,9.20
2023-03-03T14:22:24.274Z,8.82
2023-03-03T14:25:07.425Z,8.97
2023-03-03T14:27:49.124Z,8.93
2023-03-03T14:30:27.414Z,8.77
2023-03-03T14:33:09.403Z,9.20
2023-03-03T14:35:43.690Z,9.10
2023-03-03T14:38:19.405Z,8.60
2023-03-03T14:40:48.492Z,8.62
2023-03-03T14:43:27.080Z,8.55
2023-03-03T14:45:54.357Z,9.10
2023-03-03T14:48:26.295Z,9.02
2023-03-03T14:51:04.722Z,8.78
2023-03-03T14:53:44.883Z,8.93
2023-03-03T14:56:23.000Z,8.74
2023-03-03T14:58:51.039Z,8.31
2023-03-03T15:01:17.657Z,8.20
2023-03-03T15:03:59.492Z,8.52
2023-03-03T15:06:35.100Z,8.59
2023-03-03T15:09:43.228Z,8.65
2023-03-03T15:12:38.601Z,8.89
2023-03-03T15:15:11.600Z,8.81
2023-03-03T15:17:57.791Z,8.46
2023-03-03T15:20:39.352Z,8.36
2023-03-03T15:23:20.954Z,8.73
2023-03-03T15:25:54.995Z,8.97
2023-03-03T15:28:42.790Z,8.89
2023-03-03T15:31:35.151Z,8.97
2023-03-03T15:34:39.116Z,9.05
2023-03-03T15:37:42.478Z,9.13
2023-03-03T15:40:28.269Z,9.20
2023-03-03T15:43:10.320Z,9.14
2023-03-03T15:45:58.724Z,9.16
2023-03-03T15:48:37.351Z,9.16
2023-03-03T15:51:16.853Z,9.28
2023-03-03T15:54:02.261Z,8.78
2023-03-03T15:56:38.742Z,8.56
2023-03-03T15:59:46.360Z,8.62
2023-03-03T16:02:21.740Z,8.47
2023-03-03T16:05:14.238Z,8.77
2023-03-03T16:08:00.988Z,8.87
2023-03-03T16:10:36.563Z,8.74
2023-03-03T16:13:22.190Z,8.82
2023-03-03T16:15:53.600Z,8.79
2023-03-03T16:18:48.362Z,8.55
2023-03-03T16:21:29.015Z,8.82
2023-03-03T16:24:01.054Z,9.00
2023-03-03T16:27:08.901Z,8.79
2023-03-03T16:30:06.503Z,8.78
2023-03-03T16:32:43.682Z,9.07
2023-03-03T16:35:21.265Z,8.96
2023-03-03T16:38:00.606Z,8.83
2023-03-03T16:40:38.190Z,8.74
2023-03-03T16:43:27.720Z,8.79
2023-03-03T16:46:02.318Z,8.83
2023-03-03T16:48:43.190Z,8.86
2023-03-03T16:51:29.110Z,8.97
2023-03-03T16:54:11.270Z,8.86
2023-03-03T16:56:52.375Z,9.03
2023-03-03T16:59:36.236Z,9.09
2023-03-03T17:02:33.728Z,9.21
2023-03-03T17:05:15.240Z,9.19
2023-03-03T17:07:59.976Z,9.25
2023-03-03T17:10:35.467Z,9.20
2023-03-03T17:13:23.602Z,9.36
2023-03-03T17:16:12.267Z,9.33
2023-03-03T17:19:00.645Z,9.34
2023-03-03T17:21:57.960Z,9.49
2023-03-03T17:24:47.076Z,9.51
2023-03-03T17:27:37.871Z,9.55
2023-03-03T17:30:42.313Z,9.36
2023-03-03T17:33:33.372Z,9.23
2023-03-03T17:36:26.031Z,9.23
2023-03-03T17:39:15.917Z,9.38
2023-03-03T17:42:11.482Z,9.35
2023-03-03T17:44:50.657Z,9.46
2023-03-03T17:47:36.370Z,9.44
2023-03-03T17:50:26.335Z,9.11
2023-03-03T17:53:17.471Z,9.29
2023-03-03T17:56:07.692Z,9.34
2023-03-03T17:59:04.284Z,9.22
2023-03-03T18:02:04.503Z,9.43
2023-03-03T18:05:29.253Z,9.05
2023-03-03T18:08:21.114Z,9.04
2023-03-03T18:11:12.863Z,8.98
2023-03-03T18:14:00.918Z,9.31
2023-03-03T18:16:58.312Z,9.04
2023-03-03T18:19:24.951Z,9.10
2023-03-03T18:22:05.526Z,9.08
2023-03-03T18:24:38.267Z,9.15
2023-03-03T18:27:32.859Z,9.11
2023-03-03T18:30:08.566Z,9.19
2023-03-03T18:32:45.501Z,9.02
2023-03-03T18:35:33.560Z,9.04
2023-03-03T18:38:15.906Z,8.93
2023-03-03T18:41:00.071Z,8.72
2023-03-03T18:43:45.139Z,8.78
2023-03-03T18:46:20.931Z,8.97
2023-03-03T18:48:52.323Z,8.92
2023-03-03T18:51:34.507Z,9.02
2023-03-03T18:54:26.356Z,9.10
2023-03-03T18:56:52.880Z,9.37
2023-03-03T18:59:32.241Z,9.24
2023-03-03T19:02:13.897Z,8.02
2023-03-03T19:04:43.400Z,8.10
2023-03-03T19:07:27.873Z,8.46
2023-03-03T19:10:04.156Z,8.63
2023-03-03T19:12:52.841Z,8.18
2023-03-03T19:15:32.125Z,8.62
2023-03-03T19:18:02.533Z,8.96
2023-03-03T19:20:41.289Z,9.03
2023-03-03T19:23:18.273Z,8.78
2023-03-03T19:25:44.908Z,9.08
2023-03-03T19:28:38.657Z,8.93
2023-03-03T19:31:32.339Z,8.61
2023-03-03T19:34:38.575Z,8.51
2023-03-03T19:37:23.028Z,8.29
2023-03-03T19:40:00.900Z,8.08
2023-03-03T19:43:11.657Z,8.47
2023-03-03T19:46:08.451Z,8.72
2023-03-03T19:48:52.226Z,8.94
2023-03-03T19:51:33.847Z,9.15
2023-03-03T19:54:34.978Z,9.29
2023-03-03T19:57:04.623Z,9.19
2023-03-03T19:59:41.545Z,9.26
2023-03-03T20:02:42.619Z,9.20
2023-03-03T20:05:41.388Z,9.00
2023-03-03T20:08:36.099Z,8.85
2023-03-03T20:11:39.001Z,9.16
2023-03-03T20:14:20.832Z,9.18
2023-03-03T20:16:50.416Z,9.34
2023-03-03T20:19:35.220Z,8.96
2023-03-03T20:22:18.443Z,9.00
2023-03-03T20:25:11.129Z,9.06
2023-03-03T20:27:49.829Z,9.22
2023-03-03T20:30:31.149Z,8.66
2023-03-03T20:33:20.775Z,8.24
2023-03-03T20:35:56.762Z,8.75
2023-03-03T20:38:41.855Z,8.63
2023-03-03T20:41:45.566Z,8.88
2023-03-03T20:44:47.222Z,9.11
2023-03-03T20:47:29.336Z,9.32
2023-03-03T20:50:18.510Z,9.25
2023-03-03T20:53:23.482Z,9.30
2023-03-03T20:56:24.003Z,9.01
2023-03-03T20:59:11.455Z,8.89
2023-03-03T21:01:47.287Z,8.79
2023-03-03T21:04:18.645Z,8.27
2023-03-03T21:06:45.458Z,8.23
2023-03-03T21:09:44.268Z,8.25
2023-03-03T21:12:30.742Z,8.06
2023-03-03T21:15:08.139Z,8.10
2023-03-03T21:17:34.871Z,8.07
2023-03-03T21:20:27.829Z,8.36
2023-03-03T21:22:55.823Z,8.48
2023-03-03T21:25:40.768Z,8.18
2023-03-03T21:28:18.766Z,7.82
2023-03-03T21:31:22.034Z,7.44
2023-03-03T21:33:58.142Z,7.60
2023-03-03T21:36:36.857Z,7.65
2023-03-03T21:39:19.748Z,7.31
2023-03-03T21:42:02.176Z,7.58
2023-03-03T21:44:34.124Z,7.80
2023-03-03T21:47:00.986Z,7.94
2023-03-03T21:49:27.956Z,7.60
2023-03-03T21:51:56.414Z,7.56
2023-03-03T21:54:23.426Z,8.09
2023-03-03T21:56:50.510Z,8.02
2023-03-03T21:59:18.367Z,8.51
2023-03-03T22:01:45.752Z,7.59
2023-03-03T22:04:12.374Z,7.03
2023-03-03T22:06:38.962Z,7.27
2023-03-03T22:09:06.414Z,7.40
2023-03-03T22:11:33.724Z,7.30
2023-03-03T22:14:00.324Z,7.08
2023-03-03T22:16:26.982Z,7.72
2023-03-03T22:18:53.557Z,7.47
2023-03-03T22:21:20.349Z,7.49
2023-03-03T22:23:46.981Z,6.92
2023-03-03T22:26:13.619Z,7.27
2023-03-03T22:28:41.517Z,7.57
2023-03-03T22:31:09.901Z,7.57
2023-03-03T22:33:36.593Z,7.84
2023-03-03T22:36:03.325Z,8.03
2023-03-03T22:38:29.942Z,7.68
2023-03-03T22:40:56.557Z,7.09
2023-03-03T22:43:23.413Z,7.04
2023-03-03T22:45:50.914Z,7.63
2023-03-03T22:48:17.817Z,7.43
2023-03-03T22:50:45.603Z,7.72
2023-03-03T22:53:12.266Z,7.65
2023-03-03T22:55:39.032Z,7.54
2023-03-03T22:58:09.452Z,7.57
2023-03-03T23:00:38.492Z,8.19
2023-03-03T23:03:09.650Z,7.92
2023-03-03T23:05:36.839Z,8.24
2023-03-03T23:08:05.225Z,8.08
2023-03-03T23:10:31.947Z,7.87
2023-03-03T23:12:58.569Z,8.28
2023-03-03T23:15:25.369Z,7.69
2023-03-03T23:17:52.189Z,8.16
2023-03-03T23:20:21.858Z,8.25
2023-03-03T23:22:48.511Z,8.25
2023-03-03T23:25:15.451Z,7.79
2023-03-03T23:27:43.249Z,7.80
2023-03-03T23:30:12.790Z,7.66
2023-03-03T23:32:39.529Z,8.12
2023-03-03T23:35:06.509Z,8.29
2023-03-03T23:37:33.148Z,8.01
2023-03-03T23:40:00.216Z,8.38
2023-03-03T23:42:27.948Z,8.59
2023-03-03T23:44:54.610Z,8.30
2023-03-03T23:47:21.265Z,8.32
2023-03-03T23:49:47.935Z,8.59
2023-03-03T23:52:14.722Z,8.30
2023-03-03T23:54:41.390Z,8.28
2023-03-03T23:57:08.193Z,8.09
2023-03-03T23:59:35.944Z,8.23
